createdAt,value
2019-04-30T00:00:59.643Z,6.83
2019-04-30T00:03:59.248Z,7.80
2019-04-30T00:06:28.875Z,7.63
2019-04-30T00:08:55.059Z,7.40
2019-04-30T00:11:25.035Z,7.80
2019-04-30T00:13:55.290Z,8.07
2019-04-30T00:16:21.713Z,7.00
2019-04-30T00:18:58.149Z,7.53
2019-04-30T00:21:18.838Z,8.37
2019-04-30T00:23:46.462Z,8.00
2019-04-30T00:26:16.989Z,7.63
2019-04-30T00:28:46.338Z,7.77
2019-04-30T00:31:12.278Z,7.40
2019-04-30T00:33:39.619Z,6.80
2019-04-30T00:36:06.918Z,8.50
2019-04-30T00:38:37.752Z,7.93
2019-04-30T00:41:06.833Z,8.47
2019-04-30T00:43:35.376Z,8.07
2019-04-30T00:46:02.702Z,7.73
2019-04-30T00:48:31.312Z,7.90
2019-04-30T00:50:58.842Z,9.03
2019-04-30T00:53:26.327Z,8.20
2019-04-30T00:55:57.203Z,8.27
2019-04-30T00:58:28.796Z,8.67
2019-04-30T01:01:15.286Z,8.30
2019-04-30T01:03:49.610Z,7.63
2019-04-30T01:06:17.279Z,7.57
2019-04-30T01:08:46.155Z,7.80
2019-04-30T01:11:15.328Z,8.07
2019-04-30T01:13:50.176Z,7.80
2019-04-30T01:16:13.914Z,7.20
2019-04-30T01:18:41.262Z,7.80
2019-04-30T01:21:11.192Z,7.23
2019-04-30T01:23:43.170Z,8.13
2019-04-30T01:26:08.727Z,7.60
2019-04-30T01:28:36.199Z,7.50
2019-04-30T01:31:03.662Z,6.93
2019-04-30T01:33:34.563Z,6.50
2019-04-30T01:36:04.203Z,6.30
2019-04-30T01:38:29.562Z,7.77
2019-04-30T01:40:56.902Z,7.87
2019-04-30T01:43:31.558Z,7.77
2019-04-30T01:45:53.477Z,8.17
2019-04-30T01:48:20.802Z,8.33
2019-04-30T01:50:48.841Z,8.40
2019-04-30T01:53:16.502Z,7.70
2019-04-30T01:55:53.866Z,7.60
2019-04-30T01:58:33.435Z,6.93
2019-04-30T02:01:04.179Z,7.73
2019-04-30T02:03:32.528Z,7.90
2019-04-30T02:05:59.818Z,8.50
2019-04-30T02:08:27.159Z,8.20
2019-04-30T02:10:54.480Z,8.80
2019-04-30T02:13:21.839Z,8.20
2019-04-30T02:15:49.376Z,8.00
2019-04-30T02:18:16.827Z,8.20
2019-04-30T02:20:44.142Z,9.17
2019-04-30T02:23:11.457Z,9.33
2019-04-30T02:25:39.918Z,8.60
2019-04-30T02:28:08.949Z,9.60
2019-04-30T02:30:36.356Z,9.80
2019-04-30T02:33:03.704Z,11.60
2019-04-30T02:35:53.160Z,11.80
2019-04-30T02:38:24.847Z,10.50
2019-04-30T02:40:52.684Z,9.83
2019-04-30T02:43:22.311Z,9.80
2019-04-30T02:45:50.994Z,8.97
2019-04-30T02:48:19.535Z,9.33
2019-04-30T02:50:49.122Z,9.07
2019-04-30T02:54:10.050Z,8.67
2019-04-30T02:56:40.077Z,7.93
2019-04-30T02:59:06.704Z,7.90
2019-04-30T03:01:34.041Z,8.50
2019-04-30T03:04:01.343Z,8.10
2019-04-30T03:06:30.295Z,7.90
2019-04-30T03:09:00.718Z,7.47
2019-04-30T03:11:29.902Z,8.03
2019-04-30T03:13:56.253Z,8.00
2019-04-30T03:16:30.327Z,7.33
2019-04-30T03:19:19.622Z,7.83
2019-04-30T03:21:51.667Z,8.17
2019-04-30T03:24:20.253Z,8.90
2019-04-30T03:26:49.972Z,7.70
2019-04-30T03:29:17.093Z,7.80
2019-04-30T03:31:45.675Z,7.97
2019-04-30T03:34:23.170Z,9.57
2019-04-30T03:36:42.400Z,10.37
2019-04-30T03:39:10.928Z,9.93
2019-04-30T03:41:41.468Z,8.87
2019-04-30T03:44:21.071Z,9.07
2019-04-30T03:46:39.791Z,8.70
2019-04-30T03:49:06.365Z,7.57
2019-04-30T03:51:33.658Z,7.57
2019-04-30T03:54:01.019Z,6.90
2019-04-30T03:56:29.845Z,6.67
2019-04-30T03:59:00.139Z,6.87
2019-04-30T04:01:46.227Z,7.83
2019-04-30T04:04:33.063Z,6.37
2019-04-30T04:07:31.813Z,6.87
2019-04-30T04:10:21.213Z,6.53
2019-04-30T04:12:49.880Z,7.03
2019-04-30T04:15:19.772Z,7.07
2019-04-30T04:17:46.620Z,7.40
2019-04-30T04:20:14.079Z,6.97
2019-04-30T04:22:41.342Z,7.10
2019-04-30T04:25:12.723Z,6.67
2019-04-30T04:27:39.270Z,7.33
2019-04-30T04:30:07.020Z,6.73
2019-04-30T04:32:34.371Z,7.97
2019-04-30T04:35:01.654Z,7.50
2019-04-30T04:37:30.210Z,7.30
2019-04-30T04:39:59.522Z,8.10
2019-04-30T04:42:32.529Z,8.00
2019-04-30T04:44:56.326Z,7.00
2019-04-30T04:47:23.634Z,7.53
2019-04-30T04:49:53.879Z,7.57
2019-04-30T04:52:21.654Z,7.07
2019-04-30T04:54:50.690Z,7.00
2019-04-30T04:57:22.393Z,7.57
2019-04-30T04:59:49.908Z,6.37
2019-04-30T05:02:49.767Z,5.73
2019-04-30T05:05:19.344Z,6.00
2019-04-30T05:07:48.492Z,5.23
2019-04-30T05:10:15.750Z,5.57
2019-04-30T05:12:43.078Z,5.43
2019-04-30T05:15:10.698Z,5.93
2019-04-30T05:17:39.750Z,6.03
2019-04-30T05:20:09.808Z,5.77
2019-04-30T05:22:38.903Z,5.70
2019-04-30T05:25:08.672Z,6.43
2019-04-30T05:27:35.876Z,5.93
2019-04-30T05:30:03.714Z,6.43
2019-04-30T05:32:31.074Z,6.23
2019-04-30T05:34:58.733Z,7.80
2019-04-30T05:37:26.299Z,8.57
2019-04-30T05:39:53.632Z,8.53
2019-04-30T05:42:21.014Z,7.87
2019-04-30T05:44:49.713Z,9.10
2019-04-30T05:47:19.371Z,8.97
2019-04-30T05:49:48.713Z,8.57
2019-04-30T05:52:15.758Z,7.87
2019-04-30T05:54:43.114Z,8.17
2019-04-30T05:57:10.438Z,8.13
2019-04-30T05:59:38.807Z,9.57
2019-04-30T06:02:06.476Z,9.70
2019-04-30T06:04:33.793Z,9.57
2019-04-30T06:07:01.166Z,8.33
2019-04-30T06:09:48.621Z,7.77
2019-04-30T06:12:29.243Z,7.63
2019-04-30T06:15:19.399Z,7.80
2019-04-30T06:17:59.973Z,8.77
2019-04-30T06:20:20.979Z,7.53
2019-04-30T06:22:52.115Z,8.83
2019-04-30T06:25:30.459Z,8.90
2019-04-30T06:27:48.872Z,8.73
2019-04-30T06:30:16.882Z,7.77
2019-04-30T06:32:44.389Z,6.60
2019-04-30T06:35:12.059Z,7.70
2019-04-30T06:37:39.474Z,6.97
2019-04-30T06:40:09.385Z,8.10
2019-04-30T06:42:36.782Z,10.70
2019-04-30T06:45:06.510Z,7.07
2019-04-30T06:47:34.016Z,5.43
2019-04-30T06:50:01.540Z,6.17
2019-04-30T06:52:29.352Z,5.23
2019-04-30T06:54:56.977Z,5.43
2019-04-30T06:57:24.303Z,5.63
2019-04-30T06:59:51.709Z,5.20
2019-04-30T07:02:19.745Z,4.90
2019-04-30T07:04:49.099Z,4.67
2019-04-30T07:07:19.313Z,5.13
2019-04-30T07:09:55.944Z,5.07
2019-04-30T07:12:40.139Z,5.43
2019-04-30T07:15:08.739Z,5.20
2019-04-30T07:17:36.330Z,5.53
2019-04-30T07:20:03.994Z,4.83
2019-04-30T07:22:39.790Z,5.07
2019-04-30T07:25:00.635Z,6.20
2019-04-30T07:27:31.934Z,5.87
2019-04-30T07:29:57.201Z,5.80
2019-04-30T07:32:24.571Z,5.77
2019-04-30T07:34:51.973Z,5.57
2019-04-30T07:37:24.182Z,5.63
2019-04-30T07:39:49.367Z,6.43
2019-04-30T07:42:19.051Z,5.47
2019-04-30T07:44:46.224Z,5.70
2019-04-30T07:47:14.160Z,6.13
2019-04-30T07:49:49.883Z,5.47
2019-04-30T07:52:11.806Z,5.63
2019-04-30T07:54:39.875Z,6.27
2019-04-30T07:57:07.180Z,6.27
2019-04-30T07:59:34.496Z,5.80
2019-04-30T08:02:10.194Z,5.33
2019-04-30T08:04:52.083Z,5.50
2019-04-30T08:07:20.148Z,5.20
2019-04-30T08:09:49.378Z,5.03
2019-04-30T08:12:25.898Z,5.57
2019-04-30T08:14:46.426Z,5.10
2019-04-30T08:17:13.714Z,5.57
2019-04-30T08:19:41.213Z,4.60
2019-04-30T08:22:09.571Z,4.13
2019-04-30T08:24:38.990Z,4.47
2019-04-30T08:27:06.374Z,3.97
2019-04-30T08:29:33.716Z,3.93
2019-04-30T08:32:01.082Z,4.10
2019-04-30T08:34:29.221Z,3.63
2019-04-30T08:37:12.447Z,3.70
2019-04-30T08:39:29.543Z,3.80
2019-04-30T08:42:00.004Z,4.30
2019-04-30T08:44:27.218Z,3.47
2019-04-30T08:46:54.522Z,3.97
2019-04-30T08:49:22.111Z,3.50
2019-04-30T08:51:50.275Z,3.77
2019-04-30T08:54:19.835Z,3.27
2019-04-30T08:56:47.380Z,3.13
2019-04-30T08:59:14.662Z,3.00
2019-04-30T09:01:41.999Z,2.90
2019-04-30T09:04:10.482Z,3.53
2019-04-30T09:06:38.981Z,3.00
2019-04-30T09:09:13.202Z,3.30
2019-04-30T09:11:51.642Z,3.00
2019-04-30T09:14:09.821Z,3.23
2019-04-30T09:16:39.207Z,2.70
2019-04-30T09:19:06.414Z,3.10
2019-04-30T09:21:33.805Z,3.57
2019-04-30T09:24:01.162Z,3.07
2019-04-30T09:26:29.038Z,2.83
2019-04-30T09:28:56.541Z,3.03
2019-04-30T09:31:23.922Z,3.00
2019-04-30T09:33:51.323Z,3.97
2019-04-30T09:36:20.733Z,2.83
2019-04-30T09:38:48.606Z,3.17
2019-04-30T09:41:16.073Z,4.40
2019-04-30T09:43:43.469Z,3.00
2019-04-30T09:46:21.991Z,3.23
2019-04-30T09:48:40.141Z,3.27
2019-04-30T09:51:09.826Z,3.23
2019-04-30T09:53:36.734Z,3.40
2019-04-30T09:56:04.130Z,3.43
2019-04-30T09:58:31.488Z,3.77
2019-04-30T10:00:59.359Z,3.63
2019-04-30T10:03:27.144Z,3.90
2019-04-30T10:05:54.803Z,3.80
2019-04-30T10:08:22.608Z,3.83
2019-04-30T10:11:09.752Z,4.10
2019-04-30T10:13:37.379Z,3.97
2019-04-30T10:16:12.186Z,3.73
2019-04-30T10:18:39.527Z,4.07
2019-04-30T10:21:06.901Z,3.70
2019-04-30T10:23:36.143Z,3.70
2019-04-30T10:26:03.593Z,3.80
2019-04-30T10:28:33.134Z,4.07
2019-04-30T10:31:00.496Z,3.70
2019-04-30T10:33:28.711Z,3.30
2019-04-30T10:35:56.212Z,4.10
2019-04-30T10:38:23.568Z,5.17
2019-04-30T10:40:50.983Z,4.57
2019-04-30T10:43:19.783Z,4.40
2019-04-30T10:45:48.573Z,4.53
2019-04-30T10:48:16.117Z,4.50
2019-04-30T10:50:43.433Z,3.70
2019-04-30T10:53:12.398Z,4.30
2019-04-30T10:55:39.928Z,4.70
2019-04-30T10:58:07.266Z,4.70
2019-04-30T11:00:38.962Z,4.50
2019-04-30T11:03:17.207Z,4.40
2019-04-30T11:05:39.269Z,3.73
2019-04-30T11:08:06.193Z,3.87
2019-04-30T11:10:33.633Z,4.00
2019-04-30T11:13:00.958Z,4.50
2019-04-30T11:15:29.229Z,4.30
2019-04-30T11:17:56.872Z,4.60
2019-04-30T11:20:24.447Z,4.67
2019-04-30T11:22:54.509Z,4.37
2019-04-30T11:25:21.577Z,3.87
2019-04-30T11:27:50.556Z,4.13
2019-04-30T11:30:23.991Z,3.90
2019-04-30T11:32:48.045Z,3.77
2019-04-30T11:35:15.761Z,3.83
2019-04-30T11:37:43.054Z,3.80
2019-04-30T11:40:12.482Z,3.70
2019-04-30T11:42:39.753Z,3.63
2019-04-30T11:45:08.601Z,3.63
2019-04-30T11:47:37.186Z,4.00
2019-04-30T11:50:12.867Z,3.70
2019-04-30T11:52:40.202Z,3.80
2019-04-30T11:55:09.644Z,4.20
2019-04-30T11:57:37.248Z,4.70
2019-04-30T12:00:08.817Z,4.70
2019-04-30T12:02:45.408Z,4.93
2019-04-30T12:05:14.482Z,3.90
2019-04-30T12:07:53.484Z,4.57
2019-04-30T12:10:43.292Z,4.70
2019-04-30T12:13:26.743Z,3.70
2019-04-30T12:15:55.449Z,3.30
2019-04-30T12:18:22.785Z,3.13
2019-04-30T12:20:50.722Z,3.07
2019-04-30T12:23:19.006Z,2.80
2019-04-30T12:25:46.475Z,3.07
2019-04-30T12:28:13.806Z,2.93
2019-04-30T12:30:41.105Z,2.80
2019-04-30T12:33:09.106Z,2.90
2019-04-30T12:35:36.635Z,3.13
2019-04-30T12:38:03.941Z,3.30
2019-04-30T12:40:32.339Z,2.60
2019-04-30T12:43:00.005Z,2.80
2019-04-30T12:45:29.314Z,3.00
2019-04-30T12:48:00.350Z,2.83
2019-04-30T12:50:35.245Z,2.60
2019-04-30T12:53:06.842Z,2.67
2019-04-30T12:56:00.144Z,2.70
2019-04-30T12:58:25.623Z,2.90
2019-04-30T13:00:52.939Z,2.60
2019-04-30T13:03:20.290Z,1.77
2019-04-30T13:05:50.307Z,1.73
2019-04-30T13:08:17.595Z,1.60
2019-04-30T13:10:46.478Z,2.50
2019-04-30T13:13:14.818Z,3.20
2019-04-30T13:15:42.743Z,3.20
2019-04-30T13:18:10.070Z,2.40
2019-04-30T13:20:39.097Z,2.50
2019-04-30T13:23:08.654Z,3.13
2019-04-30T13:25:48.358Z,3.40
2019-04-30T13:28:09.940Z,2.83
2019-04-30T13:30:39.602Z,2.60
2019-04-30T13:33:20.442Z,2.50
2019-04-30T13:35:48.877Z,2.70
2019-04-30T13:38:30.767Z,2.80
2019-04-30T13:41:18.728Z,3.30
2019-04-30T13:44:10.102Z,3.20
2019-04-30T13:46:39.458Z,2.20
2019-04-30T13:49:06.689Z,2.40
2019-04-30T13:51:34.014Z,3.07
2019-04-30T13:54:01.433Z,4.23
2019-04-30T13:56:28.853Z,3.70
2019-04-30T14:36:50.282Z,4.93
2019-04-30T14:39:20.117Z,6.90
2019-04-30T14:41:50.810Z,3.57
2019-04-30T14:44:21.389Z,2.53
2019-04-30T14:46:58.477Z,2.50
2019-04-30T14:50:01.910Z,2.60
2019-04-30T14:52:24.252Z,4.53
2019-04-30T14:55:25.972Z,4.40
2019-04-30T14:58:31.145Z,3.47
2019-04-30T15:01:19.356Z,3.37
2019-04-30T15:03:46.933Z,4.30
2019-04-30T15:06:14.289Z,4.10
2019-04-30T15:08:41.659Z,4.23
2019-04-30T15:11:09.172Z,6.73
2019-04-30T15:13:36.571Z,5.27
2019-04-30T15:16:04.117Z,5.33
2019-04-30T15:18:31.457Z,5.60
2019-04-30T15:29:16.257Z,5.90
2019-04-30T15:31:43.775Z,6.00
2019-04-30T15:34:12.947Z,6.67
2019-04-30T15:36:41.124Z,6.10
2019-04-30T15:39:43.510Z,5.63
2019-04-30T15:42:12.525Z,5.83
2019-04-30T15:44:42.637Z,5.07
2019-04-30T15:47:09.715Z,4.87
2019-04-30T15:49:37.119Z,4.20
2019-04-30T15:52:04.764Z,4.17
2019-04-30T15:54:32.177Z,4.30
2019-04-30T15:57:00.494Z,4.00
2019-04-30T15:59:45.681Z,3.93
2019-04-30T16:02:21.322Z,4.20
2019-04-30T16:05:08.232Z,3.80
2019-04-30T16:07:40.743Z,3.77
2019-04-30T16:10:28.529Z,3.73
2019-04-30T16:13:02.935Z,3.63
2019-04-30T16:15:30.387Z,4.00
2019-04-30T16:17:59.457Z,4.13
2019-04-30T16:20:29.857Z,3.57
2019-04-30T16:22:56.111Z,4.90
2019-04-30T16:25:23.511Z,5.17
2019-04-30T16:27:51.674Z,5.33
2019-04-30T16:30:19.632Z,5.17
2019-04-30T16:32:50.541Z,5.43
2019-04-30T16:35:16.671Z,5.80
2019-04-30T16:37:44.015Z,6.10
2019-04-30T16:40:12.912Z,6.07
2019-04-30T16:42:40.241Z,5.67
2019-04-30T16:45:09.324Z,5.90
2019-04-30T16:47:36.934Z,6.20
2019-04-30T16:50:04.931Z,5.73
2019-04-30T16:52:33.343Z,5.60
2019-04-30T16:55:00.757Z,5.07
2019-04-30T16:57:30.409Z,5.70
2019-04-30T16:59:59.389Z,5.17
2019-04-30T17:02:31.916Z,5.53
2019-04-30T17:05:04.762Z,4.67
2019-04-30T17:07:43.687Z,5.40
2019-04-30T17:10:29.354Z,5.00
2019-04-30T17:13:16.451Z,5.77
2019-04-30T17:15:44.031Z,5.23
2019-04-30T17:18:12.227Z,5.40
2019-04-30T17:20:40.585Z,5.50
2019-04-30T17:23:09.472Z,4.67
2019-04-30T17:25:37.120Z,4.43
2019-04-30T17:28:04.983Z,5.87
2019-04-30T17:30:32.503Z,5.20
2019-04-30T17:33:00.654Z,5.90
2019-04-30T17:35:28.905Z,5.57
2019-04-30T17:37:56.923Z,6.37
2019-04-30T17:40:24.595Z,7.90
2019-04-30T17:42:52.241Z,8.50
2019-04-30T17:45:20.056Z,9.13
2019-04-30T17:47:48.888Z,9.10
2019-04-30T17:50:18.792Z,9.47
2019-04-30T17:52:46.599Z,9.47
2019-04-30T17:55:14.739Z,9.03
2019-04-30T17:57:42.352Z,10.03
2019-04-30T18:00:19.323Z,9.60
2019-04-30T18:02:44.362Z,8.50
2019-04-30T18:05:12.281Z,8.83
2019-04-30T18:07:40.082Z,10.20
2019-04-30T18:10:13.060Z,10.33
2019-04-30T18:12:40.753Z,11.53
2019-04-30T18:15:14.648Z,10.87
2019-04-30T18:17:44.247Z,10.60
2019-04-30T18:20:30.215Z,10.73
2019-04-30T18:23:23.865Z,11.27
2019-04-30T18:25:59.187Z,10.70
2019-04-30T18:28:29.164Z,10.70
2019-04-30T18:30:59.751Z,10.47
2019-04-30T18:33:27.479Z,11.17
2019-04-30T18:35:59.655Z,10.87
2019-04-30T18:38:31.147Z,11.13
2019-04-30T18:40:59.480Z,10.90
2019-04-30T18:43:28.884Z,10.93
2019-04-30T18:46:01.874Z,11.17
2019-04-30T18:48:30.504Z,10.90
2019-04-30T18:51:15.959Z,10.37
2019-04-30T18:53:33.149Z,10.10
2019-04-30T18:56:01.375Z,9.90
2019-04-30T18:58:43.125Z,6.73
2019-04-30T19:01:12.085Z,5.67
2019-04-30T19:03:43.005Z,5.47
2019-04-30T19:06:23.907Z,4.20
2019-04-30T19:09:09.665Z,3.30
2019-04-30T19:11:46.427Z,5.57
2019-04-30T19:14:36.719Z,3.30
2019-04-30T19:17:49.748Z,3.43
2019-04-30T19:20:22.613Z,3.17
2019-04-30T19:22:53.401Z,7.00
2019-04-30T19:25:23.883Z,5.97
2019-04-30T19:27:51.873Z,7.03
2019-04-30T19:30:21.391Z,7.30
2019-04-30T19:32:54.349Z,6.30
2019-04-30T19:35:26.947Z,6.37
2019-04-30T19:38:00.424Z,7.23
2019-04-30T19:40:28.653Z,9.10
2019-04-30T19:42:56.985Z,10.20
2019-04-30T19:45:30.553Z,10.10
2019-04-30T19:48:02.292Z,10.93
2019-04-30T19:50:31.315Z,10.83
2019-04-30T19:52:59.169Z,10.33
2019-04-30T19:55:28.601Z,9.40
2019-04-30T19:58:01.462Z,9.03
2019-04-30T20:00:34.692Z,9.23
2019-04-30T20:03:02.732Z,8.87
2019-04-30T20:05:32.627Z,9.47
2019-04-30T20:08:02.964Z,9.73
2019-04-30T20:10:30.972Z,10.77
2019-04-30T20:12:58.903Z,10.60
2019-04-30T20:15:29.843Z,10.00
2019-04-30T20:18:03.682Z,9.30
2019-04-30T20:20:39.907Z,10.00
2019-04-30T20:23:08.050Z,10.80
2019-04-30T20:25:36.419Z,9.70
2019-04-30T20:28:04.930Z,9.10
2019-04-30T20:30:33.045Z,9.17
2019-04-30T20:33:00.845Z,9.27
2019-04-30T20:35:29.276Z,9.13
2019-04-30T20:38:34.872Z,9.33
2019-04-30T20:41:03.570Z,9.13
2019-04-30T20:43:33.394Z,9.90
2019-04-30T20:46:02.767Z,10.90
2019-04-30T20:48:32.236Z,10.00
2019-04-30T20:51:01.553Z,9.77
2019-04-30T20:53:29.311Z,10.07
2019-04-30T20:55:59.192Z,8.67
2019-04-30T20:58:28.385Z,9.37
2019-04-30T21:01:03.605Z,9.57
2019-04-30T21:03:29.562Z,9.33
2019-04-30T21:06:00.345Z,8.77
2019-04-30T21:08:28.374Z,8.27
2019-04-30T21:10:55.895Z,8.00
2019-04-30T21:13:23.348Z,7.83
2019-04-30T21:15:50.760Z,7.33
2019-04-30T21:18:19.548Z,7.03
2019-04-30T21:20:47.298Z,6.90
2019-04-30T21:23:14.719Z,6.83
2019-04-30T21:25:42.149Z,7.50
2019-04-30T21:28:10.213Z,7.20
2019-04-30T21:30:37.631Z,6.70
2019-04-30T21:33:26.118Z,6.90
2019-04-30T21:35:58.772Z,7.27
2019-04-30T21:38:26.216Z,6.70
2019-04-30T21:40:53.876Z,6.40
2019-04-30T21:43:21.193Z,6.00
2019-04-30T21:45:49.374Z,5.03
2019-04-30T21:48:18.970Z,4.90
2019-04-30T21:50:46.047Z,4.87
2019-04-30T21:53:13.403Z,5.27
2019-04-30T21:55:40.767Z,4.97
2019-04-30T21:58:09.567Z,5.37
2019-04-30T22:00:55.651Z,5.33
2019-04-30T22:03:22.992Z,5.20
2019-04-30T22:05:50.421Z,5.57
2019-04-30T22:08:18.885Z,5.20
2019-04-30T22:10:46.350Z,5.97
2019-04-30T22:13:13.774Z,5.80
2019-04-30T22:15:41.130Z,5.50
2019-04-30T22:18:08.485Z,5.77
2019-04-30T22:20:36.074Z,5.57
2019-04-30T22:23:03.491Z,5.50
2019-04-30T22:25:30.846Z,6.20
2019-04-30T22:27:58.213Z,6.33
2019-04-30T22:30:25.672Z,6.00
2019-04-30T22:32:53.060Z,6.40
2019-04-30T22:35:38.911Z,6.40
2019-04-30T22:38:09.260Z,5.70
2019-04-30T22:40:38.839Z,7.07
2019-04-30T22:43:06.121Z,6.73
2019-04-30T22:45:40.529Z,6.70
2019-04-30T22:48:08.863Z,7.50
2019-04-30T22:50:36.535Z,7.50
2019-04-30T22:53:03.920Z,7.27
2019-04-30T22:55:31.228Z,6.30
2019-04-30T22:57:58.553Z,6.70
2019-04-30T23:00:35.911Z,6.83
2019-04-30T23:03:06.997Z,7.20
2019-04-30T23:05:34.370Z,7.00
2019-04-30T23:08:01.781Z,7.47
2019-04-30T23:10:29.144Z,7.30
2019-04-30T23:12:56.489Z,8.10
2019-04-30T23:15:23.985Z,7.17
2019-04-30T23:17:51.325Z,6.53
2019-04-30T23:20:18.631Z,5.60
2019-04-30T23:22:46.018Z,6.57
2019-04-30T23:25:13.547Z,6.47
2019-04-30T23:27:40.886Z,6.80
2019-04-30T23:30:08.601Z,6.93
2019-04-30T23:32:35.973Z,7.63
2019-04-30T23:35:03.591Z,7.60
2019-04-30T23:37:30.915Z,6.40
2019-04-30T23:40:26.793Z,5.93
2019-04-30T23:42:54.211Z,5.97
2019-04-30T23:45:21.650Z,6.23
2019-04-30T23:47:49.130Z,6.57
2019-04-30T23:50:16.456Z,6.23
2019-04-30T23:52:43.851Z,6.47
2019-04-30T23:55:11.574Z,5.70
2019-04-30T23:57:38.872Z,5.67
